DLH946 EDDF-EGCC
Flight info
| Callsign | DLH946 |
|---|---|
| Flight time | 1h 23m |
| Altitude | 34000 |
| Route | OBOKA3M/25C OBOKA Z29 TORNU DCT BATAK DCT GALSO Q63 ERING L179 LAM UN57 WELIN T420 ELVOS |
| Aircraft | A320/M-SDE3FGHIRWY/LB1 |
Departure
| Time | 2026-05-04 17:48 |
|---|---|
| Airport | Frankfurt Main Airport (EDDF) |
Arrival
| Time | 2026-05-04 19:11 |
|---|---|
| Airport | Manchester Airport (EGCC) |
| Time | Latitude | Longitude | Altitude | Speed | Heading |
|---|---|---|---|---|---|
| 2026-05-04 17:23 | 50.04800 | 8.57685 | 362 ft | 0 kts | 233° |
| 2026-05-04 17:38 | 50.04801 | 8.57688 | 356 ft | 2 kts | 232° |
| 2026-05-04 17:39 | 50.04819 | 8.57722 | 365 ft | 2 kts | 226° |
| 2026-05-04 17:39 | 50.04831 | 8.57740 | 361 ft | 2 kts | 220° |
| 2026-05-04 17:39 | 50.04844 | 8.57755 | 363 ft | 2 kts | 204° |
| 2026-05-04 17:40 | 50.04860 | 8.57762 | 365 ft | 2 kts | 156° |
| 2026-05-04 17:40 | 50.04871 | 8.57749 | 365 ft | 1 kts | 119° |
| 2026-05-04 17:40 | 50.04873 | 8.57745 | 365 ft | 0 kts | 115° |
| 2026-05-04 17:43 | 50.04873 | 8.57746 | 365 ft | 1 kts | 115° |
| 2026-05-04 17:43 | 50.04864 | 8.57775 | 364 ft | 5 kts | 113° |
| 2026-05-04 17:43 | 50.04847 | 8.57843 | 359 ft | 10 kts | 111° |
| 2026-05-04 17:43 | 50.04780 | 8.57918 | 359 ft | 12 kts | 160° |
| 2026-05-04 17:44 | 50.04703 | 8.57961 | 359 ft | 13 kts | 160° |
| 2026-05-04 17:44 | 50.04601 | 8.58023 | 360 ft | 15 kts | 159° |
| 2026-05-04 17:44 | 50.04570 | 8.58132 | 363 ft | 10 kts | 75° |
| 2026-05-04 17:44 | 50.04591 | 8.58217 | 367 ft | 8 kts | 69° |
| 2026-05-04 17:45 | 50.04615 | 8.58322 | 371 ft | 13 kts | 70° |
| 2026-05-04 17:45 | 50.04653 | 8.58481 | 371 ft | 16 kts | 70° |
| 2026-05-04 17:45 | 50.04631 | 8.58570 | 369 ft | 9 kts | 166° |
| 2026-05-04 17:45 | 50.04620 | 8.58575 | 370 ft | 0 kts | 164° |
| 2026-05-04 17:46 | 50.04601 | 8.58584 | 369 ft | 6 kts | 163° |
| 2026-05-04 17:46 | 50.04562 | 8.58606 | 372 ft | 9 kts | 160° |
| 2026-05-04 17:46 | 50.04512 | 8.58616 | 371 ft | 6 kts | 205° |
| 2026-05-04 17:47 | 50.04480 | 8.58560 | 370 ft | 9 kts | 244° |
| 2026-05-04 17:47 | 50.04444 | 8.58407 | 369 ft | 31 kts | 250° |
| 2026-05-04 17:47 | 50.04277 | 8.57703 | 364 ft | 105 kts | 250° |
| 2026-05-04 17:47 | 50.03957 | 8.56347 | 356 ft | 161 kts | 250° |
| 2026-05-04 17:48 | 50.03567 | 8.54585 | 757 ft | 174 kts | 253° |
| 2026-05-04 17:48 | 50.03147 | 8.52818 | 1539 ft | 174 kts | 251° |
| 2026-05-04 17:48 | 50.02697 | 8.51024 | 2052 ft | 190 kts | 245° |
| 2026-05-04 17:48 | 50.01722 | 8.49532 | 2421 ft | 210 kts | 205° |
| 2026-05-04 17:49 | 50.00329 | 8.48764 | 3109 ft | 213 kts | 197° |
| 2026-05-04 17:49 | 49.98904 | 8.48143 | 3786 ft | 214 kts | 195° |
| 2026-05-04 17:49 | 49.97475 | 8.47548 | 3956 ft | 212 kts | 195° |
| 2026-05-04 17:49 | 49.96055 | 8.46946 | 4002 ft | 212 kts | 195° |
| 2026-05-04 17:50 | 49.94535 | 8.46290 | 4309 ft | 237 kts | 195° |
| 2026-05-04 17:50 | 49.92935 | 8.45582 | 5144 ft | 242 kts | 198° |
| 2026-05-04 17:50 | 49.91458 | 8.44334 | 6061 ft | 245 kts | 220° |
| 2026-05-04 17:50 | 49.90398 | 8.42267 | 7010 ft | 247 kts | 237° |
| 2026-05-04 17:51 | 49.89513 | 8.39980 | 7955 ft | 247 kts | 237° |
| 2026-05-04 17:51 | 49.88811 | 8.37536 | 8858 ft | 252 kts | 253° |
| 2026-05-04 17:51 | 49.88596 | 8.34761 | 9480 ft | 271 kts | 270° |
| 2026-05-04 17:51 | 49.88759 | 8.31789 | 10135 ft | 282 kts | 272° |
| 2026-05-04 17:52 | 49.88981 | 8.28633 | 10451 ft | 307 kts | 278° |
| 2026-05-04 17:52 | 49.89720 | 8.25414 | 10935 ft | 326 kts | 295° |
| 2026-05-04 17:52 | 49.91019 | 8.22471 | 11663 ft | 334 kts | 303° |
| 2026-05-04 17:52 | 49.92412 | 8.19555 | 12453 ft | 338 kts | 303° |
| 2026-05-04 17:53 | 49.93844 | 8.16624 | 12842 ft | 343 kts | 307° |
| 2026-05-04 17:53 | 49.95561 | 8.14029 | 12952 ft | 346 kts | 316° |
| 2026-05-04 17:53 | 49.97388 | 8.11594 | 12970 ft | 346 kts | 316° |
| 2026-05-04 17:53 | 49.99229 | 8.09145 | 13337 ft | 351 kts | 316° |
| 2026-05-04 17:54 | 50.01060 | 8.06709 | 14156 ft | 352 kts | 316° |
| 2026-05-04 17:54 | 50.02930 | 8.04214 | 14871 ft | 355 kts | 316° |
| 2026-05-04 17:54 | 50.04811 | 8.01699 | 15566 ft | 358 kts | 316° |
| 2026-05-04 17:54 | 50.06707 | 7.99156 | 16245 ft | 362 kts | 316° |
| 2026-05-04 17:55 | 50.08623 | 7.96582 | 16921 ft | 365 kts | 316° |
| 2026-05-04 17:55 | 50.10556 | 7.93979 | 17598 ft | 368 kts | 316° |
| 2026-05-04 17:55 | 50.12516 | 7.91340 | 18267 ft | 372 kts | 316° |
| 2026-05-04 17:55 | 50.14484 | 7.88694 | 18828 ft | 376 kts | 316° |
| 2026-05-04 17:56 | 50.16469 | 7.86019 | 19412 ft | 379 kts | 315° |
| 2026-05-04 17:56 | 50.18471 | 7.83310 | 19849 ft | 382 kts | 315° |
| 2026-05-04 17:56 | 50.20475 | 7.80589 | 19990 ft | 382 kts | 315° |
| 2026-05-04 17:56 | 50.22481 | 7.77868 | 20000 ft | 382 kts | 315° |
| 2026-05-04 17:57 | 50.24483 | 7.75214 | 20003 ft | 383 kts | 320° |
| 2026-05-04 17:57 | 50.26773 | 7.72953 | 20003 ft | 387 kts | 330° |
| 2026-05-04 17:57 | 50.29202 | 7.71256 | 20006 ft | 388 kts | 333° |
| 2026-05-04 17:57 | 50.31684 | 7.69571 | 20076 ft | 391 kts | 333° |
| 2026-05-04 17:58 | 50.34183 | 7.67862 | 20694 ft | 393 kts | 333° |
| 2026-05-04 17:58 | 50.36699 | 7.66136 | 21293 ft | 396 kts | 333° |
| 2026-05-04 17:58 | 50.39233 | 7.64392 | 21879 ft | 399 kts | 333° |
| 2026-05-04 17:58 | 50.41785 | 7.62636 | 22493 ft | 401 kts | 333° |
| 2026-05-04 17:59 | 50.44352 | 7.60871 | 23097 ft | 404 kts | 333° |
| 2026-05-04 17:59 | 50.46062 | 7.59695 | 23482 ft | 405 kts | 333° |
| 2026-05-04 17:59 | 50.51267 | 7.56100 | 24404 ft | 411 kts | 333° |
| 2026-05-04 18:00 | 50.53894 | 7.54281 | 24843 ft | 414 kts | 333° |
| 2026-05-04 18:00 | 50.56474 | 7.52263 | 25259 ft | 414 kts | 325° |
| 2026-05-04 18:00 | 50.58904 | 7.49803 | 25681 ft | 416 kts | 323° |
| 2026-05-04 18:00 | 50.61337 | 7.47306 | 26089 ft | 418 kts | 322° |
| 2026-05-04 18:01 | 50.63791 | 7.44785 | 26460 ft | 423 kts | 322° |
| 2026-05-04 18:01 | 50.66273 | 7.42237 | 26890 ft | 425 kts | 322° |
| 2026-05-04 18:01 | 50.68758 | 7.39687 | 27314 ft | 428 kts | 322° |
| 2026-05-04 18:02 | 50.73458 | 7.34079 | 28089 ft | 424 kts | 308° |
| 2026-05-04 18:02 | 50.75349 | 7.30536 | 28466 ft | 420 kts | 299° |
| 2026-05-04 18:02 | 50.76850 | 7.26612 | 28831 ft | 416 kts | 291° |
| 2026-05-04 18:02 | 50.78172 | 7.22536 | 29195 ft | 418 kts | 291° |
| 2026-05-04 18:03 | 50.79502 | 7.18441 | 29558 ft | 420 kts | 291° |
| 2026-05-04 18:03 | 50.80840 | 7.14326 | 29920 ft | 422 kts | 291° |
| 2026-05-04 18:03 | 50.82176 | 7.10178 | 30235 ft | 423 kts | 290° |
| 2026-05-04 18:03 | 50.83459 | 7.05988 | 30535 ft | 424 kts | 289° |
| 2026-05-04 18:04 | 50.84705 | 7.01733 | 30796 ft | 426 kts | 288° |
| 2026-05-04 18:04 | 50.85930 | 6.97438 | 31021 ft | 429 kts | 287° |
| 2026-05-04 18:04 | 50.88389 | 6.88779 | 31550 ft | 433 kts | 288° |
| 2026-05-04 18:05 | 50.89620 | 6.84427 | 31927 ft | 431 kts | 287° |
| 2026-05-04 18:05 | 50.90771 | 6.80066 | 32306 ft | 429 kts | 285° |
| 2026-05-04 18:05 | 50.91860 | 6.75675 | 32666 ft | 427 kts | 284° |
| 2026-05-04 18:05 | 50.92912 | 6.71274 | 33026 ft | 426 kts | 284° |
| 2026-05-04 18:06 | 50.94984 | 6.62562 | 33764 ft | 424 kts | 285° |
| 2026-05-04 18:06 | 50.96042 | 6.58189 | 33968 ft | 423 kts | 285° |
| 2026-05-04 18:06 | 50.97095 | 6.53884 | 33994 ft | 416 kts | 285° |
| 2026-05-04 18:07 | 50.99180 | 6.45372 | 33987 ft | 412 kts | 285° |
| 2026-05-04 18:07 | 51.01243 | 6.36892 | 33989 ft | 411 kts | 284° |
| 2026-05-04 18:08 | 51.03294 | 6.28408 | 33985 ft | 411 kts | 284° |
| 2026-05-04 18:08 | 51.05347 | 6.19900 | 33979 ft | 411 kts | 284° |
| 2026-05-04 18:09 | 51.09421 | 6.02951 | 33975 ft | 411 kts | 284° |
| 2026-05-04 18:10 | 51.11456 | 5.94416 | 33967 ft | 412 kts | 284° |
| 2026-05-04 18:10 | 51.13483 | 5.85886 | 33966 ft | 412 kts | 284° |
| 2026-05-04 18:11 | 51.15500 | 5.77349 | 33969 ft | 412 kts | 284° |
| 2026-05-04 18:11 | 51.17511 | 5.68797 | 33991 ft | 412 kts | 284° |
| 2026-05-04 18:12 | 51.19514 | 5.60274 | 33965 ft | 413 kts | 285° |
| 2026-05-04 18:12 | 51.21528 | 5.51674 | 33967 ft | 414 kts | 285° |
| 2026-05-04 18:13 | 51.23531 | 5.43053 | 33964 ft | 414 kts | 284° |
| 2026-05-04 18:14 | 51.26535 | 5.30104 | 33959 ft | 414 kts | 284° |
| 2026-05-04 18:14 | 51.28525 | 5.21450 | 33970 ft | 415 kts | 285° |
| 2026-05-04 18:15 | 51.32493 | 5.04145 | 33957 ft | 417 kts | 285° |
| 2026-05-04 18:16 | 51.34479 | 4.95430 | 33959 ft | 417 kts | 285° |
| 2026-05-04 18:16 | 51.36457 | 4.86698 | 33958 ft | 417 kts | 285° |
| 2026-05-04 18:17 | 51.39414 | 4.73575 | 33983 ft | 418 kts | 285° |
| 2026-05-04 18:18 | 51.42369 | 4.60432 | 33970 ft | 418 kts | 285° |
| 2026-05-04 18:18 | 51.44328 | 4.51646 | 33966 ft | 418 kts | 285° |
| 2026-05-04 18:19 | 51.47245 | 4.38469 | 33966 ft | 418 kts | 285° |
| 2026-05-04 18:19 | 51.49170 | 4.29734 | 33963 ft | 418 kts | 285° |
| 2026-05-04 18:20 | 51.51114 | 4.20890 | 33968 ft | 417 kts | 284° |
| 2026-05-04 18:20 | 51.53029 | 4.12153 | 33973 ft | 417 kts | 284° |
| 2026-05-04 18:21 | 51.54953 | 4.03344 | 33979 ft | 417 kts | 284° |
| 2026-05-04 18:21 | 51.56864 | 3.94528 | 33984 ft | 417 kts | 284° |
| 2026-05-04 18:22 | 51.58763 | 3.85706 | 33988 ft | 417 kts | 284° |
| 2026-05-04 18:22 | 51.60659 | 3.76882 | 34013 ft | 417 kts | 285° |
| 2026-05-04 18:23 | 51.62534 | 3.68131 | 34011 ft | 416 kts | 285° |
| 2026-05-04 18:23 | 51.64414 | 3.59325 | 34013 ft | 416 kts | 285° |
| 2026-05-04 18:24 | 51.66289 | 3.50519 | 34011 ft | 415 kts | 285° |
| 2026-05-04 18:24 | 51.68150 | 3.41700 | 34011 ft | 415 kts | 284° |
| 2026-05-04 18:25 | 51.70006 | 3.32887 | 34029 ft | 415 kts | 285° |
| 2026-05-04 18:25 | 51.71850 | 3.24073 | 34032 ft | 414 kts | 285° |
| 2026-05-04 18:26 | 51.72883 | 3.15052 | 34023 ft | 406 kts | 267° |
| 2026-05-04 18:26 | 51.72329 | 3.06114 | 34022 ft | 402 kts | 259° |
| 2026-05-04 18:27 | 51.71556 | 2.97180 | 34012 ft | 402 kts | 259° |
| 2026-05-04 18:27 | 51.70782 | 2.88262 | 34014 ft | 402 kts | 259° |
| 2026-05-04 18:28 | 51.69993 | 2.79336 | 34007 ft | 402 kts | 258° |
| 2026-05-04 18:28 | 51.69193 | 2.70412 | 34009 ft | 403 kts | 258° |
| 2026-05-04 18:29 | 51.68391 | 2.61498 | 34006 ft | 403 kts | 258° |
| 2026-05-04 18:29 | 51.67589 | 2.52558 | 34006 ft | 403 kts | 258° |
| 2026-05-04 18:30 | 51.66374 | 2.39161 | 34019 ft | 403 kts | 259° |
| 2026-05-04 18:31 | 51.65547 | 2.30212 | 34006 ft | 404 kts | 259° |
| 2026-05-04 18:31 | 51.64711 | 2.21265 | 34005 ft | 404 kts | 258° |
| 2026-05-04 18:32 | 51.63871 | 2.12365 | 34010 ft | 404 kts | 258° |
| 2026-05-04 18:32 | 51.63035 | 2.03349 | 34011 ft | 405 kts | 259° |
| 2026-05-04 18:33 | 51.62218 | 1.94430 | 34008 ft | 405 kts | 259° |
| 2026-05-04 18:33 | 51.61381 | 1.85465 | 34014 ft | 405 kts | 259° |
| 2026-05-04 18:34 | 51.60531 | 1.76467 | 34012 ft | 406 kts | 259° |
| 2026-05-04 18:34 | 51.59667 | 1.67491 | 34014 ft | 406 kts | 259° |
| 2026-05-04 18:35 | 51.59185 | 1.58442 | 34011 ft | 409 kts | 271° |
| 2026-05-04 18:35 | 51.59602 | 1.49349 | 34019 ft | 409 kts | 271° |
| 2026-05-04 18:36 | 51.59990 | 1.40215 | 34025 ft | 409 kts | 271° |
| 2026-05-04 18:36 | 51.60364 | 1.31078 | 34020 ft | 409 kts | 271° |
| 2026-05-04 18:37 | 51.60729 | 1.21945 | 34014 ft | 409 kts | 271° |
| 2026-05-04 18:37 | 51.61101 | 1.12807 | 34016 ft | 409 kts | 271° |
| 2026-05-04 18:38 | 51.61471 | 1.03670 | 34013 ft | 409 kts | 271° |
| 2026-05-04 18:38 | 51.61829 | 0.94545 | 34024 ft | 409 kts | 271° |
| 2026-05-04 18:39 | 51.62171 | 0.85412 | 34020 ft | 409 kts | 270° |
| 2026-05-04 18:39 | 51.62506 | 0.76307 | 34014 ft | 410 kts | 270° |
| 2026-05-04 18:40 | 51.62789 | 0.68705 | 34017 ft | 410 kts | 270° |
| 2026-05-04 18:40 | 51.63176 | 0.57995 | 34018 ft | 410 kts | 270° |
| 2026-05-04 18:41 | 51.63492 | 0.48820 | 34018 ft | 410 kts | 270° |
| 2026-05-04 18:41 | 51.63807 | 0.39710 | 34008 ft | 411 kts | 270° |
| 2026-05-04 18:42 | 51.64118 | 0.30504 | 34007 ft | 412 kts | 270° |
| 2026-05-04 18:42 | 51.64580 | 0.21309 | 34007 ft | 415 kts | 278° |
| 2026-05-04 18:42 | 51.65384 | 0.16826 | 34015 ft | 419 kts | 289° |
| 2026-05-04 18:43 | 51.66690 | 0.12614 | 34019 ft | 423 kts | 299° |
| 2026-05-04 18:43 | 51.69850 | 0.06551 | 34006 ft | 428 kts | 312° |
| 2026-05-04 18:44 | 51.74039 | -0.00278 | 34028 ft | 428 kts | 311° |
| 2026-05-04 18:44 | 51.78221 | -0.07167 | 34036 ft | 429 kts | 311° |
| 2026-05-04 18:45 | 51.82396 | -0.14087 | 34046 ft | 430 kts | 312° |
| 2026-05-04 18:45 | 51.86572 | -0.21006 | 34025 ft | 429 kts | 312° |
| 2026-05-04 18:46 | 51.90741 | -0.27938 | 34017 ft | 429 kts | 311° |
| 2026-05-04 18:46 | 51.94869 | -0.34836 | 34019 ft | 429 kts | 311° |
| 2026-05-04 18:47 | 51.99047 | -0.41833 | 34031 ft | 429 kts | 311° |
| 2026-05-04 18:47 | 52.03178 | -0.48754 | 34035 ft | 429 kts | 311° |
| 2026-05-04 18:48 | 52.07318 | -0.55708 | 33751 ft | 428 kts | 312° |
| 2026-05-04 18:48 | 52.09379 | -0.59184 | 33177 ft | 424 kts | 311° |
| 2026-05-04 18:48 | 52.11411 | -0.62623 | 32665 ft | 420 kts | 311° |
| 2026-05-04 18:48 | 52.13432 | -0.66043 | 32151 ft | 416 kts | 311° |
| 2026-05-04 18:49 | 52.15432 | -0.69426 | 31648 ft | 412 kts | 311° |
| 2026-05-04 18:49 | 52.17415 | -0.72782 | 31160 ft | 409 kts | 311° |
| 2026-05-04 18:49 | 52.19379 | -0.76107 | 30671 ft | 406 kts | 311° |
| 2026-05-04 18:49 | 52.21323 | -0.79411 | 30192 ft | 402 kts | 311° |
| 2026-05-04 18:50 | 52.23253 | -0.82700 | 29676 ft | 399 kts | 311° |
| 2026-05-04 18:50 | 52.25295 | -0.85662 | 29237 ft | 396 kts | 321° |
| 2026-05-04 18:50 | 52.27606 | -0.88083 | 28793 ft | 393 kts | 326° |
| 2026-05-04 18:50 | 52.29932 | -0.90382 | 28367 ft | 388 kts | 326° |
| 2026-05-04 18:51 | 52.32234 | -0.92664 | 27918 ft | 384 kts | 326° |
| 2026-05-04 18:51 | 52.34506 | -0.94924 | 27504 ft | 381 kts | 326° |
| 2026-05-04 18:51 | 52.36762 | -0.97176 | 27067 ft | 377 kts | 326° |
| 2026-05-04 18:51 | 52.38990 | -0.99401 | 26646 ft | 374 kts | 326° |
| 2026-05-04 18:52 | 52.41200 | -1.01612 | 26214 ft | 371 kts | 325° |
| 2026-05-04 18:52 | 52.43392 | -1.03811 | 25742 ft | 368 kts | 325° |
| 2026-05-04 18:52 | 52.45574 | -1.06001 | 25295 ft | 366 kts | 324° |
| 2026-05-04 18:52 | 52.47738 | -1.08177 | 24840 ft | 364 kts | 324° |
| 2026-05-04 18:53 | 52.49897 | -1.10346 | 24374 ft | 363 kts | 324° |
| 2026-05-04 18:53 | 52.52017 | -1.12481 | 23916 ft | 361 kts | 323° |
| 2026-05-04 18:53 | 52.54156 | -1.14640 | 23417 ft | 360 kts | 323° |
| 2026-05-04 18:53 | 52.56287 | -1.16788 | 22913 ft | 357 kts | 324° |
| 2026-05-04 18:54 | 52.58397 | -1.18913 | 22465 ft | 354 kts | 324° |
| 2026-05-04 18:54 | 52.60489 | -1.21022 | 22014 ft | 351 kts | 324° |
| 2026-05-04 18:54 | 52.62568 | -1.23121 | 21570 ft | 349 kts | 324° |
| 2026-05-04 18:54 | 52.64629 | -1.25205 | 21134 ft | 347 kts | 324° |
| 2026-05-04 18:55 | 52.66678 | -1.27286 | 20699 ft | 345 kts | 324° |
| 2026-05-04 18:55 | 52.70746 | -1.31419 | 19840 ft | 342 kts | 325° |
| 2026-05-04 18:55 | 52.72767 | -1.33472 | 19418 ft | 341 kts | 325° |
| 2026-05-04 18:56 | 52.74756 | -1.35500 | 19057 ft | 340 kts | 326° |
| 2026-05-04 18:56 | 52.76767 | -1.37555 | 18622 ft | 339 kts | 326° |
| 2026-05-04 18:56 | 52.78771 | -1.39601 | 18188 ft | 339 kts | 326° |
| 2026-05-04 18:56 | 52.80780 | -1.41651 | 17749 ft | 337 kts | 326° |
| 2026-05-04 18:57 | 52.82773 | -1.43683 | 17327 ft | 334 kts | 326° |
| 2026-05-04 18:57 | 52.84745 | -1.45698 | 16910 ft | 332 kts | 326° |
| 2026-05-04 18:57 | 52.86709 | -1.47710 | 16491 ft | 331 kts | 326° |
| 2026-05-04 18:57 | 52.88636 | -1.49691 | 16090 ft | 329 kts | 326° |
| 2026-05-04 18:58 | 52.90579 | -1.51695 | 15679 ft | 328 kts | 327° |
| 2026-05-04 18:58 | 52.92517 | -1.53688 | 15267 ft | 327 kts | 327° |
| 2026-05-04 18:58 | 52.94449 | -1.55679 | 14861 ft | 326 kts | 327° |
| 2026-05-04 18:58 | 52.96378 | -1.57668 | 14459 ft | 325 kts | 327° |
| 2026-05-04 18:59 | 52.98295 | -1.59645 | 14052 ft | 324 kts | 327° |
| 2026-05-04 18:59 | 53.00213 | -1.61626 | 13624 ft | 323 kts | 327° |
| 2026-05-04 18:59 | 53.02085 | -1.63567 | 13216 ft | 321 kts | 327° |
| 2026-05-04 18:59 | 53.03972 | -1.65523 | 12819 ft | 318 kts | 327° |
| 2026-05-04 19:00 | 53.05729 | -1.67715 | 12425 ft | 314 kts | 314° |
| 2026-05-04 19:00 | 53.07176 | -1.70409 | 12035 ft | 311 kts | 309° |
| 2026-05-04 19:00 | 53.08576 | -1.73130 | 11649 ft | 308 kts | 309° |
| 2026-05-04 19:00 | 53.09962 | -1.75817 | 11299 ft | 304 kts | 310° |
| 2026-05-04 19:01 | 53.11318 | -1.78444 | 11130 ft | 295 kts | 310° |
| 2026-05-04 19:01 | 53.12642 | -1.81014 | 10712 ft | 291 kts | 310° |
| 2026-05-04 19:01 | 53.13953 | -1.83563 | 10194 ft | 287 kts | 310° |
| 2026-05-04 19:01 | 53.15242 | -1.86074 | 9792 ft | 285 kts | 310° |
| 2026-05-04 19:02 | 53.16527 | -1.88575 | 9410 ft | 282 kts | 310° |
| 2026-05-04 19:02 | 53.17798 | -1.91051 | 9053 ft | 280 kts | 310° |
| 2026-05-04 19:02 | 53.19059 | -1.93510 | 8703 ft | 278 kts | 310° |
| 2026-05-04 19:02 | 53.20309 | -1.95957 | 8355 ft | 276 kts | 310° |
| 2026-05-04 19:03 | 53.21538 | -1.98361 | 8174 ft | 266 kts | 310° |
| 2026-05-04 19:03 | 53.22759 | -2.00553 | 7978 ft | 257 kts | 321° |
| 2026-05-04 19:03 | 53.24267 | -2.02009 | 7968 ft | 248 kts | 339° |
| 2026-05-04 19:03 | 53.25993 | -2.02640 | 7606 ft | 260 kts | 358° |
| 2026-05-04 19:04 | 53.27782 | -2.02449 | 7319 ft | 256 kts | 4° |
| 2026-05-04 19:04 | 53.29549 | -2.02214 | 6892 ft | 252 kts | 3° |
| 2026-05-04 19:04 | 53.31292 | -2.01997 | 6345 ft | 250 kts | 3° |
| 2026-05-04 19:04 | 53.33018 | -2.01788 | 5839 ft | 249 kts | 3° |
| 2026-05-04 19:05 | 53.34740 | -2.01579 | 5453 ft | 247 kts | 3° |
| 2026-05-04 19:05 | 53.36451 | -2.01375 | 5033 ft | 247 kts | 3° |
| 2026-05-04 19:05 | 53.38154 | -2.01175 | 4703 ft | 244 kts | 3° |
| 2026-05-04 19:05 | 53.39826 | -2.00972 | 4487 ft | 235 kts | 3° |
| 2026-05-04 19:06 | 53.41418 | -2.00773 | 4357 ft | 224 kts | 3° |
| 2026-05-04 19:06 | 53.42919 | -2.00582 | 4249 ft | 214 kts | 2° |
| 2026-05-04 19:06 | 53.44331 | -2.00945 | 4134 ft | 201 kts | 332° |
| 2026-05-04 19:06 | 53.45327 | -2.02444 | 4059 ft | 188 kts | 301° |
| 2026-05-04 19:07 | 53.45703 | -2.04467 | 3859 ft | 182 kts | 274° |
| 2026-05-04 19:07 | 53.45411 | -2.06549 | 3365 ft | 189 kts | 241° |
| 2026-05-04 19:07 | 53.44620 | -2.08277 | 3013 ft | 185 kts | 233° |
| 2026-05-04 19:07 | 53.43826 | -2.09926 | 2738 ft | 178 kts | 234° |
| 2026-05-04 19:08 | 53.43083 | -2.11470 | 2500 ft | 164 kts | 234° |
| 2026-05-04 19:08 | 53.42394 | -2.12903 | 2273 ft | 150 kts | 236° |
| 2026-05-04 19:08 | 53.41769 | -2.14206 | 2078 ft | 142 kts | 235° |
| 2026-05-04 19:08 | 53.41157 | -2.15480 | 1890 ft | 139 kts | 236° |
| 2026-05-04 19:09 | 53.40556 | -2.16732 | 1706 ft | 137 kts | 236° |
| 2026-05-04 19:09 | 53.39960 | -2.17974 | 1514 ft | 137 kts | 236° |
| 2026-05-04 19:09 | 53.39363 | -2.19216 | 1331 ft | 136 kts | 236° |
| 2026-05-04 19:09 | 53.38770 | -2.20448 | 1140 ft | 136 kts | 235° |
| 2026-05-04 19:10 | 53.38181 | -2.21672 | 951 ft | 134 kts | 233° |
| 2026-05-04 19:10 | 53.37599 | -2.22878 | 757 ft | 134 kts | 233° |
| 2026-05-04 19:10 | 53.37024 | -2.24051 | 599 ft | 128 kts | 233° |
| 2026-05-04 19:10 | 53.36464 | -2.25212 | 371 ft | 127 kts | 235° |
| 2026-05-04 19:11 | 53.35909 | -2.26385 | 265 ft | 130 kts | 234° |
| 2026-05-04 19:11 | 53.35407 | -2.27437 | 238 ft | 94 kts | 232° |
| 2026-05-04 19:11 | 53.35102 | -2.28059 | 231 ft | 44 kts | 231° |
| 2026-05-04 19:11 | 53.34989 | -2.28321 | 234 ft | 23 kts | 241° |
| 2026-05-04 19:12 | 53.34951 | -2.28561 | 233 ft | 21 kts | 261° |
| 2026-05-04 19:12 | 53.35008 | -2.28743 | 233 ft | 10 kts | 14° |
| 2026-05-04 19:12 | 53.35054 | -2.28669 | 233 ft | 9 kts | 52° |
| 2026-05-04 19:13 | 53.35091 | -2.28589 | 234 ft | 8 kts | 52° |
| 2026-05-04 19:13 | 53.35125 | -2.28516 | 233 ft | 8 kts | 52° |
| 2026-05-04 19:13 | 53.35157 | -2.28450 | 233 ft | 7 kts | 50° |
| 2026-05-04 19:13 | 53.35187 | -2.28391 | 233 ft | 6 kts | 50° |
| 2026-05-04 19:14 | 53.35215 | -2.28336 | 233 ft | 6 kts | 49° |
| 2026-05-04 19:14 | 53.35241 | -2.28284 | 233 ft | 6 kts | 49° |
| 2026-05-04 19:14 | 53.35267 | -2.28233 | 233 ft | 6 kts | 49° |
| 2026-05-04 19:14 | 53.35307 | -2.28188 | 233 ft | 11 kts | 19° |
| 2026-05-04 19:15 | 53.35413 | -2.28163 | 233 ft | 17 kts | 6° |
| 2026-05-04 19:15 | 53.35531 | -2.28085 | 233 ft | 20 kts | 39° |
| 2026-05-04 19:15 | 53.35622 | -2.27905 | 233 ft | 20 kts | 51° |
| 2026-05-04 19:15 | 53.35711 | -2.27762 | 233 ft | 15 kts | 21° |
| 2026-05-04 19:16 | 53.35817 | -2.27738 | 233 ft | 17 kts | 5° |
| 2026-05-04 19:16 | 53.35941 | -2.27727 | 233 ft | 18 kts | 1° |
| 2026-05-04 19:16 | 53.36044 | -2.27832 | 233 ft | 19 kts | 324° |
| 2026-05-04 19:16 | 53.36146 | -2.27983 | 233 ft | 20 kts | 314° |
| 2026-05-04 19:17 | 53.36251 | -2.28162 | 233 ft | 22 kts | 315° |
| 2026-05-04 19:17 | 53.36362 | -2.28344 | 233 ft | 22 kts | 314° |
| 2026-05-04 19:17 | 53.36448 | -2.28527 | 233 ft | 20 kts | 312° |
| 2026-05-04 19:17 | 53.36540 | -2.28676 | 233 ft | 18 kts | 315° |
| 2026-05-04 19:18 | 53.36637 | -2.28760 | 233 ft | 17 kts | 25° |
| 2026-05-04 19:18 | 53.36706 | -2.28664 | 233 ft | 8 kts | 14° |
| 2026-05-04 19:18 | 53.36742 | -2.28709 | 233 ft | 7 kts | 313° |
| 2026-05-04 19:18 | 53.36766 | -2.28748 | 233 ft | 0 kts | 316° |